Terminal Aerodrome Forecast
Issued by NWS Sioux Falls, SD

Home | Current Version | Previous Version | Text Only | Print | Product List | Glossary Off
Versions: 1 2 3 4 5 6 7 8 9 10 11 12 13 14 15 16 17 18 19

000
FTUS43 KFSD 211129
TAFHON
TAF
KHON 211129Z 2112/2212 23005KT P6SM SKC
     FM211500 20002KT P6SM SKC
     FM212000 16006KT P6SM SKC
     FM220400 14008KT P6SM BKN200=

USA.gov is the U.S. government's official web portal to all federal, state and local government web resources and services.